createdAt,value
2018-03-06T00:02:08.203Z,15.77
2018-03-06T00:04:34.883Z,14.83
2018-03-06T00:07:01.361Z,17.37
2018-03-06T00:09:27.987Z,17.00
2018-03-06T00:11:54.470Z,16.47
2018-03-06T00:14:20.971Z,17.90
2018-03-06T00:16:47.333Z,17.70
2018-03-06T00:19:13.811Z,18.60
2018-03-06T00:21:41.189Z,18.33
2018-03-06T00:24:07.705Z,17.77
2018-03-06T00:26:34.323Z,18.93
2018-03-06T00:29:00.732Z,20.23
2018-03-06T00:31:27.145Z,18.87
2018-03-06T00:33:53.729Z,20.20
2018-03-06T00:36:20.226Z,19.17
2018-03-06T00:38:46.630Z,18.33
2018-03-06T00:41:13.786Z,19.50
2018-03-06T00:43:40.283Z,17.97
2018-03-06T00:46:07.474Z,19.17
2018-03-06T00:48:34.654Z,19.17
2018-03-06T00:51:01.080Z,20.17
2018-03-06T00:53:27.519Z,19.73
2018-03-06T00:55:54.108Z,19.67
2018-03-06T00:58:20.558Z,19.30
2018-03-06T01:00:46.978Z,19.67
2018-03-06T01:03:13.506Z,20.60
2018-03-06T01:05:39.889Z,22.30
2018-03-06T01:08:06.345Z,18.70
2018-03-06T01:10:32.841Z,19.77
2018-03-06T01:12:59.252Z,19.93
2018-03-06T01:15:25.692Z,19.23
2018-03-06T01:17:52.095Z,19.37
2018-03-06T01:20:19.273Z,19.50
2018-03-06T01:22:45.707Z,19.37
2018-03-06T01:25:12.897Z,20.23
2018-03-06T01:27:39.326Z,20.47
2018-03-06T01:30:05.727Z,21.70
2018-03-06T01:32:32.896Z,19.47
2018-03-06T01:34:59.309Z,20.53
2018-03-06T01:37:25.740Z,21.70
2018-03-06T01:39:52.559Z,20.73
2018-03-06T01:42:19.731Z,21.40
2018-03-06T01:44:46.226Z,24.83
2018-03-06T01:47:13.437Z,23.67
2018-03-06T01:49:39.846Z,24.33
2018-03-06T01:52:06.286Z,25.80
2018-03-06T01:54:32.722Z,24.23
2018-03-06T01:56:59.151Z,23.73
2018-03-06T01:59:26.344Z,23.57
2018-03-06T02:01:52.921Z,25.83
2018-03-06T02:04:19.369Z,24.20
2018-03-06T02:06:45.841Z,26.30
2018-03-06T02:09:12.301Z,26.23
2018-03-06T02:11:39.571Z,28.30
2018-03-06T02:14:06.061Z,25.97
2018-03-06T02:16:32.518Z,26.70
2018-03-06T02:18:58.990Z,25.27
2018-03-06T02:21:25.411Z,26.20
2018-03-06T02:23:52.623Z,23.70
2018-03-06T02:26:19.733Z,25.20
2018-03-06T02:28:46.204Z,23.40
2018-03-06T02:31:12.696Z,19.40
2018-03-06T02:33:39.308Z,18.70
2018-03-06T02:36:05.747Z,18.23
2018-03-06T02:38:32.359Z,19.23
2018-03-06T02:40:59.631Z,18.83
2018-03-06T02:43:26.167Z,18.20
2018-03-06T02:46:11.585Z,19.00
2018-03-06T02:48:38.092Z,18.27
2018-03-06T02:51:05.251Z,19.60
2018-03-06T02:53:31.691Z,20.57
2018-03-06T02:55:58.099Z,20.60
2018-03-06T02:58:24.631Z,20.90
2018-03-06T03:00:51.165Z,19.33
2018-03-06T03:03:18.318Z,20.53
2018-03-06T03:05:44.736Z,22.80
2018-03-06T03:08:11.922Z,21.47
2018-03-06T03:10:38.376Z,21.90
2018-03-06T03:13:04.892Z,23.33
2018-03-06T03:15:31.388Z,23.50
2018-03-06T03:17:57.787Z,22.50
2018-03-06T03:20:24.236Z,25.07
2018-03-06T03:22:50.808Z,23.83
2018-03-06T03:25:17.263Z,25.50
2018-03-06T03:27:43.678Z,24.00
2018-03-06T03:30:10.858Z,24.20
2018-03-06T03:35:32.394Z,25.07
2018-03-06T03:37:58.888Z,25.00
2018-03-06T03:40:26.096Z,24.47
2018-03-06T03:42:52.768Z,24.87
2018-03-06T03:45:26.177Z,23.73
2018-03-06T03:47:52.738Z,25.70
2018-03-06T03:50:19.186Z,27.07
2018-03-06T03:52:45.774Z,27.07
2018-03-06T03:55:12.195Z,31.60
2018-03-06T03:57:38.659Z,28.20
2018-03-06T04:00:05.149Z,31.50
2018-03-06T04:02:31.564Z,28.70
2018-03-06T04:04:58.275Z,29.80
2018-03-06T04:07:24.735Z,28.33
2018-03-06T04:09:51.179Z,31.33
2018-03-06T04:12:17.658Z,30.60
2018-03-06T04:14:44.106Z,29.60
2018-03-06T04:17:11.432Z,29.83
2018-03-06T04:19:38.642Z,31.10
2018-03-06T04:22:05.134Z,30.30
2018-03-06T04:24:31.732Z,30.10
2018-03-06T04:26:58.227Z,29.20
2018-03-06T04:29:24.920Z,30.73
2018-03-06T04:31:52.101Z,31.30
2018-03-06T04:34:18.597Z,32.57
2018-03-06T04:36:45.855Z,30.27
2018-03-06T04:39:12.419Z,31.17
2018-03-06T04:41:38.974Z,30.57
2018-03-06T04:44:05.410Z,30.10
2018-03-06T04:46:31.898Z,29.57
2018-03-06T04:48:58.452Z,33.37
2018-03-06T04:51:25.683Z,31.53
2018-03-06T04:53:52.115Z,30.90
2018-03-06T04:56:19.394Z,29.57
2018-03-06T04:58:45.930Z,33.70
2018-03-06T05:01:12.385Z,31.47
2018-03-06T05:03:39.719Z,34.47
2018-03-06T05:06:06.153Z,32.87
2018-03-06T05:08:33.509Z,32.10
2018-03-06T05:11:00.044Z,35.17
2018-03-06T05:13:26.476Z,35.20
2018-03-06T05:15:53.632Z,33.80
2018-03-06T05:18:20.082Z,33.70
2018-03-06T05:20:46.540Z,32.97
2018-03-06T05:23:13.032Z,32.70
2018-03-06T05:25:39.540Z,34.40
2018-03-06T05:28:05.998Z,35.97
2018-03-06T05:30:32.429Z,34.97
2018-03-06T05:32:58.847Z,37.47
2018-03-06T05:35:26.119Z,34.60
2018-03-06T05:37:52.583Z,36.67
2018-03-06T05:40:19.004Z,37.60
2018-03-06T05:42:45.418Z,41.57
2018-03-06T05:45:11.886Z,38.90
2018-03-06T05:47:38.414Z,37.93
2018-03-06T05:50:04.897Z,36.97
2018-03-06T05:52:31.453Z,44.13
2018-03-06T05:54:58.690Z,39.70
2018-03-06T05:57:25.893Z,41.83
2018-03-06T05:59:52.389Z,41.33
2018-03-06T06:02:19.645Z,43.37
2018-03-06T06:04:46.377Z,41.97
2018-03-06T06:07:13.562Z,40.85
2018-03-06T06:09:40.069Z,38.60
2018-03-06T06:12:06.529Z,38.60
2018-03-06T06:14:32.982Z,35.17
2018-03-06T06:16:59.570Z,39.50
2018-03-06T06:19:26.785Z,39.37
2018-03-06T06:21:53.178Z,36.97
2018-03-06T06:24:19.651Z,40.50
2018-03-06T06:26:46.057Z,37.73
2018-03-06T06:29:12.497Z,36.40
2018-03-06T06:31:38.934Z,37.33
2018-03-06T06:34:05.339Z,31.87
2018-03-06T06:36:32.506Z,33.57
2018-03-06T06:38:59.000Z,32.47
2018-03-06T06:41:25.398Z,28.23
2018-03-06T06:43:51.867Z,30.80
2018-03-06T06:46:18.409Z,26.97
2018-03-06T06:48:45.558Z,35.67
2018-03-06T06:51:11.945Z,33.20
2018-03-06T06:53:38.405Z,41.30
2018-03-06T06:56:05.639Z,42.00
2018-03-06T06:58:32.011Z,38.87
2018-03-06T07:00:58.472Z,38.70
2018-03-06T07:03:24.886Z,41.30
2018-03-06T07:05:51.350Z,40.97
2018-03-06T07:08:17.802Z,42.03
2018-03-06T07:10:44.267Z,40.93
2018-03-06T07:13:10.676Z,44.30
2018-03-06T07:15:37.086Z,40.33
2018-03-06T07:18:03.515Z,41.10
2018-03-06T07:20:30.627Z,41.77
2018-03-06T07:22:57.921Z,43.90
2018-03-06T07:25:24.404Z,40.37
2018-03-06T07:27:51.582Z,41.80
2018-03-06T07:30:18.747Z,43.43
2018-03-06T07:32:45.881Z,37.70
2018-03-06T07:35:13.178Z,39.80
2018-03-06T07:37:39.758Z,42.30
2018-03-06T07:40:06.920Z,43.90
2018-03-06T07:42:34.075Z,44.20
2018-03-06T07:45:00.531Z,42.40
2018-03-06T07:47:27.087Z,43.87
2018-03-06T07:49:53.647Z,42.37
2018-03-06T07:52:20.095Z,44.83
2018-03-06T07:54:47.262Z,44.50
2018-03-06T07:57:14.474Z,44.97
2018-03-06T07:59:40.934Z,44.20
2018-03-06T08:02:08.093Z,45.47
2018-03-06T08:04:34.482Z,44.93
2018-03-06T08:07:00.940Z,45.90
2018-03-06T08:09:28.096Z,43.43
2018-03-06T08:11:54.481Z,44.57
2018-03-06T08:14:20.912Z,43.43
2018-03-06T08:16:47.304Z,44.03
2018-03-06T08:19:14.477Z,42.77
2018-03-06T08:21:40.898Z,45.23
2018-03-06T08:24:07.481Z,45.03
2018-03-06T08:26:34.249Z,43.33
2018-03-06T08:29:00.725Z,44.47
2018-03-06T08:31:27.261Z,42.90
2018-03-06T08:33:53.728Z,44.50
2018-03-06T08:36:21.670Z,43.67
2018-03-06T08:38:48.086Z,43.60
2018-03-06T08:41:14.651Z,41.87
2018-03-06T08:43:41.218Z,47.10
2018-03-06T08:46:08.443Z,46.73
2018-03-06T08:48:34.979Z,44.40
2018-03-06T08:51:01.407Z,43.87
2018-03-06T08:53:27.792Z,45.70
2018-03-06T08:55:54.923Z,46.20
2018-03-06T08:58:21.378Z,44.93
2018-03-06T09:00:47.792Z,43.13
2018-03-06T09:03:14.176Z,44.90
2018-03-06T09:05:40.576Z,43.80
2018-03-06T09:08:06.975Z,44.43
2018-03-06T09:10:33.439Z,43.17
2018-03-06T09:12:59.876Z,41.77
2018-03-06T09:15:27.016Z,45.00
2018-03-06T09:17:54.355Z,45.37
2018-03-06T09:20:20.875Z,44.57
2018-03-06T09:22:47.397Z,45.87
2018-03-06T09:25:13.933Z,48.00
2018-03-06T09:27:40.346Z,45.43
2018-03-06T09:30:06.737Z,47.17
2018-03-06T09:32:33.142Z,45.90
2018-03-06T09:34:59.559Z,45.50
2018-03-06T09:37:25.971Z,45.43
2018-03-06T09:39:52.373Z,46.90
2018-03-06T09:42:19.602Z,48.10
2018-03-06T09:44:46.026Z,44.73
2018-03-06T09:47:12.450Z,46.80
2018-03-06T09:49:39.084Z,48.97
2018-03-06T09:52:05.520Z,48.30
2018-03-06T09:54:31.989Z,45.50
2018-03-06T09:56:59.280Z,45.53
2018-03-06T09:59:26.580Z,46.50
2018-03-06T10:01:53.744Z,47.23
2018-03-06T10:04:20.904Z,44.93
2018-03-06T10:06:47.329Z,44.70
2018-03-06T10:09:14.483Z,45.23
2018-03-06T10:11:41.658Z,47.60
2018-03-06T10:14:08.044Z,43.47
2018-03-06T10:16:34.576Z,42.17
2018-03-06T10:19:01.765Z,42.87
2018-03-06T10:21:28.177Z,45.53
2018-03-06T10:23:54.623Z,44.37
2018-03-06T10:26:21.786Z,47.00
2018-03-06T10:28:48.167Z,42.17
2018-03-06T10:31:16.078Z,43.47
2018-03-06T10:33:42.583Z,44.30
2018-03-06T10:36:09.008Z,43.40
2018-03-06T10:38:36.159Z,44.37
2018-03-06T10:41:02.697Z,43.60
2018-03-06T10:43:29.231Z,43.17
2018-03-06T10:45:55.630Z,44.90
2018-03-06T10:48:22.033Z,44.03
2018-03-06T10:50:49.143Z,43.93
2018-03-06T10:53:15.625Z,43.80
2018-03-06T10:55:42.158Z,42.90
2018-03-06T10:58:08.590Z,44.73
2018-03-06T11:00:41.846Z,44.57
2018-03-06T11:03:09.011Z,43.17
2018-03-06T11:05:35.376Z,43.80
2018-03-06T11:08:01.861Z,45.43
2018-03-06T11:10:28.392Z,44.60
2018-03-06T11:12:54.814Z,45.50
2018-03-06T11:15:22.181Z,43.00
2018-03-06T11:17:48.643Z,44.23
2018-03-06T11:20:15.068Z,42.10
2018-03-06T11:22:42.283Z,41.53
2018-03-06T11:25:08.705Z,44.13
2018-03-06T11:27:35.101Z,44.67
2018-03-06T11:30:02.304Z,43.30
2018-03-06T11:32:28.770Z,47.60
2018-03-06T11:34:55.899Z,44.70
2018-03-06T11:37:23.074Z,43.87
2018-03-06T11:39:50.212Z,44.83
2018-03-06T11:42:17.358Z,45.40
2018-03-06T11:44:43.885Z,47.00
2018-03-06T11:47:11.100Z,47.83
2018-03-06T11:49:37.550Z,45.33
2018-03-06T11:52:04.008Z,48.27
2018-03-06T11:54:30.399Z,46.70
2018-03-06T11:56:56.805Z,45.57
2018-03-06T11:59:23.218Z,42.87
2018-03-06T12:01:50.401Z,45.93
2018-03-06T12:04:16.802Z,43.10
2018-03-06T12:06:43.196Z,45.63
2018-03-06T12:09:09.748Z,45.10
2018-03-06T12:11:36.124Z,44.90
2018-03-06T12:14:02.718Z,45.00
2018-03-06T12:16:29.893Z,45.30
2018-03-06T12:18:56.399Z,44.33
2018-03-06T12:21:23.066Z,43.10
2018-03-06T12:23:50.199Z,44.73
2018-03-06T12:26:16.731Z,45.27
2018-03-06T12:28:43.903Z,41.63
2018-03-06T12:31:10.313Z,45.30
2018-03-06T12:33:37.481Z,43.33
2018-03-06T12:36:04.654Z,45.03
2018-03-06T12:38:31.121Z,43.43
2018-03-06T12:40:58.284Z,45.43
2018-03-06T12:43:24.703Z,45.23
2018-03-06T12:45:51.110Z,45.20
2018-03-06T12:48:17.522Z,46.10
2018-03-06T12:50:43.933Z,42.43
2018-03-06T12:53:10.351Z,47.50
2018-03-06T12:55:36.769Z,44.97
2018-03-06T12:58:03.216Z,42.80
2018-03-06T13:00:29.642Z,43.70
2018-03-06T13:02:56.872Z,44.83
2018-03-06T13:05:23.444Z,41.93
2018-03-06T13:07:50.614Z,46.50
2018-03-06T13:10:17.738Z,44.10
2018-03-06T13:12:44.152Z,42.90
2018-03-06T13:15:10.552Z,45.50
2018-03-06T13:17:36.962Z,44.27
2018-03-06T13:20:04.292Z,45.33
2018-03-06T13:22:30.741Z,45.37
2018-03-06T13:24:57.220Z,43.53
2018-03-06T13:27:23.682Z,45.50
2018-03-06T13:29:50.118Z,42.90
2018-03-06T13:32:16.640Z,42.07
2018-03-06T13:34:43.215Z,44.23
2018-03-06T13:37:10.454Z,43.03
2018-03-06T13:39:37.668Z,43.00
2018-03-06T13:42:04.132Z,41.07
2018-03-06T13:44:30.566Z,40.30
2018-03-06T13:46:57.061Z,41.60
2018-03-06T13:49:23.618Z,40.00
2018-03-06T13:51:50.082Z,40.30
2018-03-06T13:54:16.609Z,41.30
2018-03-06T13:56:43.139Z,41.53
2018-03-06T13:59:09.562Z,41.47
2018-03-06T14:01:35.976Z,41.27
2018-03-06T14:04:02.517Z,42.63
2018-03-06T14:06:28.916Z,40.80
2018-03-06T14:08:55.409Z,42.23
2018-03-06T14:11:21.852Z,41.17
2018-03-06T14:13:49.007Z,38.77
2018-03-06T14:16:16.320Z,37.20
2018-03-06T14:18:42.802Z,33.90
2018-03-06T14:21:10.021Z,36.07
2018-03-06T14:23:36.566Z,34.57
2018-03-06T14:26:03.796Z,37.87
2018-03-06T14:28:30.200Z,37.10
2018-03-06T14:30:56.584Z,38.27
2018-03-06T14:33:23.120Z,39.20
2018-03-06T14:35:49.686Z,37.40
2018-03-06T14:38:16.319Z,39.27
2018-03-06T14:40:43.647Z,36.40
2018-03-06T14:43:11.615Z,37.53
2018-03-06T14:45:38.115Z,38.13
2018-03-06T14:48:04.684Z,37.70
2018-03-06T14:50:31.071Z,38.50
2018-03-06T14:52:57.532Z,37.50
2018-03-06T14:55:23.996Z,38.80
2018-03-06T14:57:51.181Z,36.80
2018-03-06T15:00:17.588Z,38.43
2018-03-06T15:02:44.055Z,36.07
2018-03-06T15:05:18.420Z,35.47
2018-03-06T15:07:44.958Z,38.27
2018-03-06T15:10:11.353Z,37.40
2018-03-06T15:12:37.828Z,39.90
2018-03-06T15:15:04.340Z,40.00
2018-03-06T15:17:30.739Z,38.43
2018-03-06T15:19:57.139Z,35.60
2018-03-06T15:22:24.585Z,35.40
2018-03-06T15:24:50.990Z,36.50
2018-03-06T15:27:17.549Z,35.90
2018-03-06T15:29:44.003Z,36.53
2018-03-06T15:32:11.223Z,35.60
2018-03-06T15:34:37.655Z,37.00
2018-03-06T15:37:04.101Z,32.57
2018-03-06T15:39:30.574Z,34.37
2018-03-06T15:41:57.036Z,29.80
2018-03-06T15:44:23.533Z,31.47
2018-03-06T15:46:50.084Z,31.57
2018-03-06T15:49:16.558Z,30.33
2018-03-06T15:51:43.575Z,30.43
2018-03-06T15:54:10.154Z,30.70
2018-03-06T15:56:37.515Z,30.07
2018-03-06T15:59:04.731Z,30.63
2018-03-06T16:01:31.277Z,30.53
2018-03-06T16:03:57.762Z,31.87
2018-03-06T16:06:24.218Z,31.43
2018-03-06T16:08:50.634Z,33.53
2018-03-06T16:11:17.218Z,32.33
2018-03-06T16:13:43.698Z,33.30
2018-03-06T16:16:10.303Z,33.13
2018-03-06T16:18:36.798Z,32.27
2018-03-06T16:21:03.300Z,32.90
2018-03-06T16:23:29.783Z,34.00
2018-03-06T16:25:56.971Z,30.63
2018-03-06T16:28:23.597Z,31.07
2018-03-06T16:30:50.028Z,34.07
2018-03-06T16:33:16.901Z,30.87
2018-03-06T16:35:44.050Z,31.27
2018-03-06T16:38:11.222Z,33.03
2018-03-06T16:40:37.810Z,31.47
2018-03-06T16:43:04.453Z,30.20
2018-03-06T16:45:31.631Z,33.87
2018-03-06T16:47:58.125Z,35.47
2018-03-06T16:50:24.753Z,36.20
2018-03-06T16:52:58.263Z,33.67
2018-03-06T16:55:24.948Z,36.60
2018-03-06T16:57:51.677Z,36.27
2018-03-06T17:00:19.175Z,38.70
2018-03-06T17:02:46.605Z,35.50
2018-03-06T17:05:13.402Z,37.53
2018-03-06T17:07:39.987Z,38.53
2018-03-06T17:10:07.423Z,35.77
2018-03-06T17:12:34.078Z,36.43
2018-03-06T17:15:01.562Z,36.80
2018-03-06T17:17:28.123Z,34.47
2018-03-06T17:19:54.888Z,38.47
2018-03-06T17:22:22.245Z,36.33
2018-03-06T17:24:48.906Z,37.77
2018-03-06T17:27:15.479Z,37.77
2018-03-06T17:29:42.776Z,39.30
2018-03-06T17:32:09.482Z,36.70
2018-03-06T17:34:36.132Z,37.23
2018-03-06T17:37:02.692Z,38.37
2018-03-06T17:39:29.514Z,36.13
2018-03-06T17:41:56.137Z,37.57
2018-03-06T17:44:22.757Z,36.10
2018-03-06T17:46:50.050Z,36.83
2018-03-06T17:49:16.753Z,37.50
2018-03-06T17:51:44.070Z,35.60
2018-03-06T17:54:10.681Z,36.47
2018-03-06T17:56:37.230Z,37.33
2018-03-06T17:59:03.781Z,37.73
2018-03-06T18:01:31.228Z,39.30
2018-03-06T18:03:57.922Z,37.43
2018-03-06T18:06:24.542Z,35.20
2018-03-06T18:08:51.846Z,38.57
2018-03-06T18:11:18.561Z,38.63
2018-03-06T18:13:45.199Z,38.60
2018-03-06T18:16:11.796Z,38.43
2018-03-06T18:18:38.781Z,38.40
2018-03-06T18:21:05.398Z,41.73
2018-03-06T18:23:31.983Z,37.93
2018-03-06T18:25:58.807Z,38.40
2018-03-06T18:28:25.434Z,40.83
2018-03-06T18:30:52.032Z,37.60
2018-03-06T18:33:18.712Z,39.87
2018-03-06T18:35:46.018Z,51.30
2018-03-06T18:38:12.785Z,47.70
2018-03-06T18:40:39.426Z,47.03
2018-03-06T18:43:06.087Z,44.00
2018-03-06T18:45:33.448Z,43.33
2018-03-06T18:47:59.918Z,44.00
2018-03-06T18:50:38.988Z,44.27
2018-03-06T18:53:05.414Z,45.33
2018-03-06T18:55:31.968Z,42.63
2018-03-06T18:57:58.436Z,46.37
2018-03-06T19:03:44.258Z,45.13
2018-03-06T19:09:16.406Z,47.00
2018-03-06T19:11:43.651Z,45.23
2018-03-06T19:14:10.855Z,44.73
2018-03-06T19:16:37.436Z,42.97
2018-03-06T19:19:04.669Z,42.27
2018-03-06T19:21:31.084Z,42.30
2018-03-06T19:23:57.602Z,41.80
2018-03-06T19:26:24.077Z,43.27
2018-03-06T19:28:50.630Z,44.47
2018-03-06T19:31:18.086Z,43.70
2018-03-06T19:33:44.603Z,44.40
2018-03-06T19:36:11.153Z,42.13
2018-03-06T19:38:38.609Z,44.33
2018-03-06T19:41:05.769Z,43.87
2018-03-06T19:43:32.505Z,42.00
2018-03-06T19:45:59.344Z,44.40
2018-03-06T19:48:26.804Z,43.83
2018-03-06T19:50:53.230Z,46.07
2018-03-06T19:53:20.416Z,42.53
2018-03-06T19:55:47.544Z,44.60
2018-03-06T19:58:14.151Z,46.10
2018-03-06T20:00:40.807Z,46.30
2018-03-06T20:03:08.062Z,45.13
2018-03-06T20:05:35.228Z,44.70
2018-03-06T20:08:01.699Z,46.37
2018-03-06T20:10:28.117Z,45.50
2018-03-06T20:12:54.589Z,48.17
2018-03-06T20:15:22.180Z,48.40
2018-03-06T20:17:48.654Z,47.53
2018-03-06T20:20:15.070Z,47.33
2018-03-06T20:22:41.538Z,46.60
2018-03-06T20:25:14.525Z,47.97
2018-03-06T20:27:41.776Z,46.20
2018-03-06T20:30:08.253Z,48.50
2018-03-06T20:32:40.828Z,45.87
2018-03-06T20:35:07.358Z,45.47
2018-03-06T20:37:33.751Z,49.00
2018-03-06T20:40:06.338Z,47.50
2018-03-06T20:42:33.004Z,47.57
2018-03-06T20:45:00.256Z,48.40
2018-03-06T20:47:26.766Z,50.57
2018-03-06T20:49:53.539Z,48.03
2018-03-06T20:52:20.042Z,50.70
2018-03-06T20:54:52.616Z,48.13
2018-03-06T20:57:19.063Z,48.57
2018-03-06T20:59:45.620Z,48.03
2018-03-06T21:02:12.802Z,49.83
2018-03-06T21:04:39.249Z,49.83
2018-03-06T21:07:05.667Z,48.40
2018-03-06T21:09:32.090Z,48.30
2018-03-06T21:11:59.230Z,48.90
2018-03-06T21:14:25.672Z,51.47
2018-03-06T21:16:52.125Z,50.07
2018-03-06T21:19:18.822Z,49.07
2018-03-06T21:21:45.982Z,46.10
2018-03-06T21:24:13.331Z,49.50
2018-03-06T21:26:39.768Z,49.20
2018-03-06T21:29:06.224Z,50.07
2018-03-06T21:31:32.805Z,51.07
2018-03-06T21:33:59.362Z,51.23
2018-03-06T21:36:26.570Z,50.57
2018-03-06T21:38:53.015Z,49.13
2018-03-06T21:41:19.433Z,47.03
2018-03-06T21:43:45.853Z,50.43
2018-03-06T21:46:12.448Z,47.40
2018-03-06T21:48:39.597Z,47.60
2018-03-06T21:51:06.048Z,45.53
2018-03-06T21:53:33.363Z,46.73
2018-03-06T21:55:59.796Z,47.33
2018-03-06T21:58:26.278Z,45.77
2018-03-06T22:00:52.782Z,50.97
2018-03-06T22:03:19.225Z,45.53
2018-03-06T22:05:45.744Z,45.70
2018-03-06T22:08:12.222Z,44.77
2018-03-06T22:10:38.658Z,45.30
2018-03-06T22:13:05.206Z,45.90
2018-03-06T22:15:31.796Z,46.93
2018-03-06T22:17:58.361Z,45.77
2018-03-06T22:20:24.923Z,43.50
2018-03-06T22:22:51.385Z,44.73
2018-03-06T22:25:17.820Z,43.83
2018-03-06T22:27:44.373Z,41.30
2018-03-06T22:30:11.665Z,43.30
2018-03-06T22:32:38.191Z,39.80
2018-03-06T22:35:04.692Z,42.73
2018-03-06T22:37:31.961Z,39.90
2018-03-06T22:40:00.019Z,38.87
2018-03-06T22:42:27.204Z,39.20
2018-03-06T22:44:53.788Z,39.53
2018-03-06T22:47:20.249Z,37.80
2018-03-06T22:49:46.730Z,41.60
2018-03-06T22:52:13.296Z,36.40
2018-03-06T22:54:39.851Z,36.93
2018-03-06T22:57:07.125Z,38.67
2018-03-06T22:59:33.583Z,40.27
2018-03-06T23:02:00.024Z,40.20
2018-03-06T23:04:26.444Z,39.93
2018-03-06T23:06:52.904Z,38.33
2018-03-06T23:09:19.365Z,39.37
2018-03-06T23:11:46.522Z,38.87
2018-03-06T23:14:12.984Z,36.57
2018-03-06T23:16:39.481Z,36.47
2018-03-06T23:19:06.726Z,37.83
2018-03-06T23:21:33.277Z,38.00
2018-03-06T23:24:00.622Z,34.83
2018-03-06T23:26:27.801Z,33.53
2018-03-06T23:28:54.338Z,38.63
2018-03-06T23:31:20.743Z,33.70
2018-03-06T23:33:47.148Z,35.00
2018-03-06T23:36:13.611Z,33.77
2018-03-06T23:38:40.763Z,32.20
2018-03-06T23:41:07.290Z,32.73
2018-03-06T23:43:34.574Z,33.20
2018-03-06T23:46:00.966Z,32.33
2018-03-06T23:48:27.409Z,29.97
2018-03-06T23:50:53.819Z,30.57
2018-03-06T23:53:20.209Z,29.13
2018-03-06T23:55:46.632Z,29.43
2018-03-06T23:58:13.116Z,30.90
